-JavaCPC -demo -emu -j-cpc_ani -tools 0-9 A B C D E F G H I J K L M N O P Q R S T U V W X Y Z roms
FILEDATESIZEDLs
KTris by Richard Wilson (PD).zip 2017-04-21 16:14 2 Kb254
Kaiser (G) (19xx).zip 2017-04-21 16:13 91 Kb285
Kane & Nebulus & Renaud - Marche a l'Ombre.zip 2017-04-21 16:13 95 Kb157
Kane (UK) (1986).zip 2017-04-21 16:13 28 Kb245
Kane (UK) (1986) [a1].zip 2017-04-21 16:13 80 Kb257
Kane (UK) (1986) [a2].zip 2017-04-21 16:13 38 Kb240
Kane (UK) (1986) [t1].zip 2017-04-21 16:13 38 Kb260
Karateka (F) (1986).zip 2017-04-21 16:13 50 Kb250
Karateka (F) (1986) [f1].zip 2017-04-21 16:13 50 Kb255
Karateka (F) (1986) [t1].zip 2017-04-21 16:13 50 Kb247
Karateka (F) (1990).zip 2017-04-21 16:13 49 Kb248
Karateka (F) (1990) [t1].zip 2017-04-21 16:13 49 Kb240
Karateka (F).dsk 2017-04-21 16:13 192 Kb250
Karl's Treasure Hunt (UK) (1984).zip 2017-04-21 16:13 11 Kb246
Karl's Treasure Hunt (UK) (1984) [a1].zip 2017-04-21 16:13 84 Kb245
Karl's Treasure Hunt (UK) (1984) [a2].zip 2017-04-21 16:13 11 Kb242
Karnov (E) - Disk 1A.dsk 2017-04-21 16:13 214 Kb238
Karnov (E) - Disk 1B.dsk 2017-04-21 16:13 214 Kb236
Karnov (UK) (1988) (Disk 1 of 2).zip 2017-04-21 16:13 73 Kb229
Karnov (UK) (1988) (Disk 1 of 2) [a1].zip 2017-04-21 16:13 56 Kb225
Karnov (UK) (1988) (Disk 1 of 2) [t1].zip 2017-04-21 16:13 159 Kb238
Karnov (UK) (1988) (Disk 1 of 2) [t2].zip 2017-04-21 16:13 73 Kb224
Karnov (UK) (1988) (Disk 2 of 2).zip 2017-04-21 16:13 62 Kb233
Karnov (UK) (1988) (Disk 2 of 2) [a1].zip 2017-04-21 16:13 105 Kb233
Karnov (UK) (1988) (Disk 2 of 2) [t2].zip 2017-04-21 16:13 62 Kb264
Kat Trap (E).dsk 2017-04-21 16:13 91 Kb228
Kat Trap (UK) (1987).zip 2017-04-21 16:13 34 Kb236
Keep Yourself Alive (F) (1987).zip 2017-04-21 16:13 19 Kb241
Kenny Dalglish Soccer Manager (E).cdt 2017-04-21 16:13 57 Kb245
Kenny Dalglish Soccer Manager (UK) (1989).zip 2017-04-21 16:13 25 Kb233
Kenny Dalglish Soccer Match (UK) (1990).zip 2017-04-21 16:13 29 Kb232
Kentilla (UK) (1985).zip 2017-04-21 16:13 23 Kb237
Kentilla (UK) (1985) [a1].zip 2017-04-21 16:13 30 Kb237
Kentucky Racing (E).cdt 2017-04-21 16:13 45 Kb241
Kentucky Racing (UK) (1990).zip 2017-04-21 16:13 24 Kb231
Kentucky Racing (UK) (1990) [f1].zip 2017-04-21 16:13 24 Kb238
Kessia (F) (19xx).zip 2017-04-21 16:13 72 Kb230
Kettle (E).dsk 2017-04-21 16:13 193 Kb227
Kettle (UK) (1986).zip 2017-04-21 16:13 21 Kb242
Kevin Thacker's CPC Guide (UK) (19xx) (PD) (Disk 1 of 2).zip 2017-04-21 16:13 47 Kb226
Kevin Thacker's CPC Guide (UK) (19xx) (PD) (Disk 2 of 2).zip 2017-04-21 16:13 41 Kb232
Key Factor, The (UK) (1985).zip 2017-04-21 16:13 13 Kb234
Kick Off (UK,F,G,S,I) (1990).zip 2017-04-21 16:13 27 Kb235
Kick Off (UK,F,G,S,I) (1990) [a1].zip 2017-04-21 16:13 131 Kb229
Kick Off (UK,F,G,S,I) (1990) [a2].zip 2017-04-21 16:13 31 Kb226
Kick Off 2 (E) - Disk 1A.dsk 2017-04-21 16:13 178 Kb244
Kick Off 2 (E) - Disk 1B.dsk 2017-04-21 16:13 178 Kb237
Kick Off 2 (F) (1990).zip 2017-04-21 16:13 68 Kb233
Kick Off 2 (F) (1990) [a1].zip 2017-04-21 16:13 68 Kb234
Kikstart II (UK) (1988).zip 2017-04-21 16:13 24 Kb236
Kikstart II (UK) (1988) [a1].zip 2017-04-21 16:13 23 Kb241
Killapede (UK) (1986).zip 2017-04-21 16:13 26 Kb231
Killapede (UK) (1986) [a1].zip 2017-04-21 16:13 26 Kb227
Killapede (UK) (1986) [a2].zip 2017-04-21 16:13 32 Kb240
Killapede (UK) (1986) [a3].zip 2017-04-21 16:13 30 Kb263
Killed Until Dead (UK) (1987) (Disk 1 of 2).zip 2017-04-21 16:13 50 Kb223
Killed Until Dead (UK) (1987) (Disk 2 of 2).zip 2017-04-21 16:13 62 Kb228
Killer Ball (UK) (1991).zip 2017-04-21 16:14 103 Kb232
Killer Ball (UK) (1991) [a1].zip 2017-04-21 16:13 103 Kb231
Killer Ball (UK) (1991) [a2].zip 2017-04-21 16:13 76 Kb230
Killer Ball (UK) (1991) [a3].zip 2017-04-21 16:13 96 Kb227
Killer Cobra (E).cdt 2017-04-21 16:14 49 Kb231
Killer Cobra (UK) (1987).zip 2017-04-21 16:14 27 Kb234
Killer Cobra (UK) (1987) [a1].zip 2017-04-21 16:14 27 Kb232
Killer Cobra (UK) (1987) [a2].zip 2017-04-21 16:14 31 Kb227
Killer Gorilla & Knight Lore & Laserwarp & Molecule Man & Zaxx (F).zip 2017-04-21 16:14 82 Kb148
Killer Gorilla (UK) (1984).zip 2017-04-21 16:14 19 Kb234
Killer Gorilla (UK) (1984) [a1].zip 2017-04-21 16:14 19 Kb240
Killer Gorilla (UK) (1984) [a2].zip 2017-04-21 16:14 15 Kb244
Killer Gorilla (UK) (1984) [a3].zip 2017-04-21 16:14 18 Kb234
Killer Gorilla (UK) (1984) [b1].zip 2017-04-21 16:14 19 Kb234
Killer Gorilla (UK) (1984) [b2].zip 2017-04-21 16:14 19 Kb235
Killer Ring (UK) (1987).zip 2017-04-21 16:14 16 Kb237
Killer Ring (UK) (1987) [a1].zip 2017-04-21 16:14 16 Kb239
Kiloroid (UK) (19xx).zip 2017-04-21 16:14 2 Kb231
Kim (F) (1986).zip 2017-04-21 16:14 9 Kb232
Kinetic (UK) (1987).zip 2017-04-21 16:14 35 Kb231
Kinetic (UK) (1987) [a1].zip 2017-04-21 16:14 36 Kb237
Kinetic (UK) (1987) [a2].zip 2017-04-21 16:14 35 Kb240
Kinetik (E).dsk 2017-04-21 16:14 195 Kb246
Kingdom of Hamil (UK) (1987).zip 2017-04-21 16:14 57 Kb232
Kingdoms (UK) (1985).zip 2017-04-21 16:14 5 Kb231
Kit de Telechargement - Telecharge Amstrad CPC (F).dsk 2017-04-21 16:14 217 Kb239
Kit de Telechargement pour Amstrad CPC (F).dsk 2017-04-21 16:14 191 Kb254
Klax & Meynaumede (F) & Nervous Break Down (F) & Skweek.zip 2017-04-21 16:14 97 Kb149
Klax (E).dsk 2017-04-21 16:14 172 Kb236
Klax (UK) (1990) (CPM).zip 2017-04-21 16:14 44 Kb227
Klax (UK) (1990) (CPM) [a1].zip 2017-04-21 16:14 44 Kb242
Klax (UK) (1990) (CPM Version).zip 2017-04-21 16:14 43 Kb225
Klax (UK) (1990) (CPM Version) [a1].zip 2017-04-21 16:14 43 Kb235
Klax (UK) (1990) (Cart).zip 2017-04-21 16:14 41 Kb238
Klax (UK) (1990).zip 2017-04-21 16:14 42 Kb227
Klax (UK) (1990) [a1].zip 2017-04-21 16:14 42 Kb240
Klax (UK) (1990) [h1].zip 2017-04-21 16:14 52 Kb230
Klax (UK) (1990) [h2].zip 2017-04-21 16:14 54 Kb234
Knaves and thou Prisoners (UK) (19xx).zip 2017-04-21 16:14 8 Kb225
Knight Force (F) (1989) (Disk 1 of 2).zip 2017-04-21 16:14 54 Kb229
Knight Force (F) (1989) (Disk 1 of 2) [t1].zip 2017-04-21 16:14 55 Kb226
Knight Force (F) (1989) (Disk 1 of 2) [t2] & Power Drift.zip 2017-04-21 16:14 108 Kb138
Knight Force (F) (1989) (Disk 1 of 2) [t2].zip 2017-04-21 16:14 75 Kb223
Knight Force (F) (1989) (Disk 2 of 2).zip 2017-04-21 16:14 76 Kb232
Knight Force (F) - Disk 1A.dsk 2017-04-21 16:14 456 Kb232
Knight Force (F) - Disk 1B.dsk 2017-04-21 16:14 627 Kb232
Knight Games (E) - Side A.cdt 2017-04-21 16:14 166 Kb240
Knight Games (E) - Side B.cdt 2017-04-21 16:14 142 Kb230
Knight Games (UK) (1986) (Disk 1 of 2).zip 2017-04-21 16:14 88 Kb236
Knight Games (UK) (1986) (Disk 1 of 2) [a1].zip 2017-04-21 16:14 83 Kb228
Knight Games (UK) (1986) (Disk 1 of 2) [a2].zip 2017-04-21 16:14 83 Kb227
Knight Games (UK) (1986) (Disk 1 of 2) [a3].zip 2017-04-21 16:14 103 Kb221
Knight Games (UK) (1986) (Disk 2 of 2).zip 2017-04-21 16:14 94 Kb235
Knight Games (UK) (1986) (Disk 2 of 2) [a1].zip 2017-04-21 16:14 76 Kb230
Knight Games (UK) (1986) (Disk 2 of 2) [a2].zip 2017-04-21 16:14 79 Kb227
Knight Games (UK) (1986) (Disk 2 of 2) [a3].zip 2017-04-21 16:14 109 Kb228
Knight Games (UK) (1986) [f1][t1].zip 2017-04-21 16:14 179 Kb230
Knight Lore (E).cdt 2017-04-21 16:14 42 Kb234
Knight Lore (UK) (1984).zip 2017-04-21 16:14 25 Kb241
Knight Lore (UK) (1984) [a1].zip 2017-04-21 16:14 25 Kb226
Knight Lore (UK) (1984) [a2].zip 2017-04-21 16:14 25 Kb238
Knight Moves (F) (19xx) (Disk 1 of 2).zip 2017-04-21 16:14 60 Kb230
Knight Moves (F) (19xx) (Disk 2 of 2).zip 2017-04-21 16:14 83 Kb232
Knight Orc (E) - Disk 1A.dsk 2017-04-21 16:14 194 Kb231
Knight Orc (E) - Disk 1B.dsk 2017-04-21 16:14 199 Kb231
Knight Orc (UK) (1987) (Disk 1 of 2).zip 2017-04-21 16:14 119 Kb243
Knight Orc (UK) (1987) (Disk 2 of 2).zip 2017-04-21 16:14 110 Kb236
Knight Rider (E).cdt 2017-04-21 16:14 45 Kb237
Knight Rider (UK) (1986).zip 2017-04-21 16:14 20 Kb232
Knight Rider (UK) (1986) [h1].zip 2017-04-21 16:14 32 Kb230
Knight Rider (UK) (1986) [h2].zip 2017-04-21 16:14 21 Kb237
Knight Tyme (E).cdt 2017-04-21 16:14 57 Kb238
Knight Tyme (UK) (1986).zip 2017-04-21 16:14 31 Kb242
Knight Tyme (UK) (1986) [a1].zip 2017-04-21 16:14 31 Kb236
Knight Tyme (UK) (1986) [t1].zip 2017-04-21 16:14 31 Kb228
Knightmare (E).dsk 2017-04-21 16:14 213 Kb249
Knightmare (UK) (1987).zip 2017-04-21 16:14 29 Kb231
Knightmare (UK) (1987) [a1].zip 2017-04-21 16:14 30 Kb230
Knightmare (UK) (1987) [a2].zip 2017-04-21 16:14 30 Kb239
Knightmare (UK) (1987) [t1].zip 2017-04-21 16:14 33 Kb233
Know (G).dsk 2017-04-21 16:14 192 Kb250
Kobayashi Naru (UK) (19xx).zip 2017-04-21 16:14 31 Kb243
Kobayashi Naru (UK) (1987).zip 2017-04-21 16:14 31 Kb247
Kobayashi Naru (UK) (1987) [a1].zip 2017-04-21 16:14 31 Kb233
Kobayashi Naru (UK) (1987) [a2].zip 2017-04-21 16:14 48 Kb254
Kokotoni Wilf (UK) (19xx).zip 2017-04-21 16:14 137 Kb242
Kokotoni Wilf (UK) (19xx) [a1].zip 2017-04-21 16:14 35 Kb241
Kokotoni Wilf (UK) (19xx) [f1][t1].zip 2017-04-21 16:14 37 Kb233
Konami's Golf (UK) (1986).zip 2017-04-21 16:14 24 Kb230
Konami's Golf (UK) (1986) [a1].zip 2017-04-21 16:14 24 Kb233
Konami's Golf (UK) (1986) [a2].zip 2017-04-21 16:14 26 Kb236
Konami Coin-op Hits (UK) (19xx) (Disk 1 of 2).zip 2017-04-21 16:14 50 Kb237
Konami Coin-op Hits (UK) (19xx) (Disk 1 of 2) [a1].zip 2017-04-21 16:14 50 Kb224
Konami Coin-op Hits (UK) (19xx) (Disk 2 of 2).zip 2017-04-21 16:14 65 Kb227
Konami Coin-op Hits (UK) (19xx) (Disk 2 of 2) [a1].zip 2017-04-21 16:14 65 Kb246
Konami Coin-op Hits (UK) (19xx) (Disk 2 of 2) [a2].zip 2017-04-21 16:14 65 Kb226
Kong Strikes Back (UK) (1985).zip 2017-04-21 16:14 21 Kb249
Kong Strikes Back (UK) (1985) [a1].zip 2017-04-21 16:14 21 Kb246
Kong Strikes Back (UK) (1985) [a2].zip 2017-04-21 16:14 23 Kb235
Koronis Rift (E).dsk 2017-04-21 16:14 186 Kb237
Koronis Rift (UK) (1987).zip 2017-04-21 16:14 57 Kb239
Krakout (E).cdt 2017-04-21 16:14 64 Kb248
Krakout (E).dsk 2017-04-21 16:14 171 Kb239
Krakout (UK) (1987).zip 2017-04-21 16:14 31 Kb239
Krakout (UK) (1987) [h1].zip 2017-04-21 16:14 34 Kb239
Kristal (F).dsk 2017-04-21 16:14 191 Kb239
Kristal (UK) (1985).zip 2017-04-21 16:14 16 Kb244
Kristax (UK) (1989).zip 2017-04-21 16:14 9 Kb245
Krypton Factor (UK) (1987) (Disk 1 of 2).zip 2017-04-21 16:14 52 Kb227
Krypton Factor (UK) (1987) (Disk 1 of 2) [a1].zip 2017-04-21 16:14 47 Kb239
Krypton Factor (UK) (1987) (Disk 2 of 2).zip 2017-04-21 16:14 5 Kb234
Krypton Factor (UK) (1987) (Disk 2 of 2) [a1].zip 2017-04-21 16:14 21 Kb235
Kung-Fu (UK) (1986).zip 2017-04-21 16:14 19 Kb236
Kung-Fu Master (E).dsk 2017-04-21 16:14 191 Kb230
Kung-Fu Master (UK) (1986).zip 2017-04-21 16:14 28 Kb248
Kung-Fu Master (UK) (1986) [h1].zip 2017-04-21 16:14 22 Kb238
Kwah (UK) (1987).zip 2017-04-21 16:14 36 Kb224
Kwik Snax (E).cdt 2017-04-21 16:14 65 Kb249
Kwik Snax (UK) (1990).zip 2017-04-21 16:14 22 Kb232
Kwik Snax (UK) (1990) [f1].zip 2017-04-21 16:14 33 Kb245
Kwik Snax (UK) (1990) [h1].zip 2017-04-21 16:14 41 Kb238
Kwik Snax (UK) (1990) [t1].zip 2017-04-21 16:14 33 Kb239
kobayashi Naru (E).cdt 2017-04-21 16:14 74 Kb238
180 Files
-JavaCPC -demo -emu -j-cpc_ani -tools 0-9 A B C D E F G H I J K L M N O P Q R S T U V W X Y Z roms